createdAt,value
2023-03-26T00:01:17.516Z,6.45
2023-03-26T00:03:47.092Z,6.42
2023-03-26T00:06:15.516Z,6.41
2023-03-26T00:08:44.898Z,6.37
2023-03-26T00:11:13.656Z,6.36
2023-03-26T00:13:41.423Z,6.36
2023-03-26T00:16:08.340Z,6.36
2023-03-26T00:18:35.055Z,6.37
2023-03-26T00:21:05.147Z,6.37
2023-03-26T00:23:33.856Z,6.38
2023-03-26T00:26:02.697Z,6.39
2023-03-26T00:28:29.870Z,6.40
2023-03-26T00:31:05.179Z,6.41
2023-03-26T00:33:32.500Z,6.40
2023-03-26T00:36:02.466Z,6.39
2023-03-26T00:38:30.866Z,6.37
2023-03-26T00:41:05.857Z,6.38
2023-03-26T00:43:34.934Z,6.40
2023-03-26T00:46:02.205Z,6.37
2023-03-26T00:48:44.040Z,6.37
2023-03-26T00:51:15.199Z,6.39
2023-03-26T00:53:43.002Z,6.37
2023-03-26T00:56:09.987Z,6.37
2023-03-26T00:58:37.262Z,6.36
2023-03-26T01:01:07.824Z,6.33
2023-03-26T01:03:36.682Z,6.33
2023-03-26T01:06:19.651Z,6.31
2023-03-26T01:08:52.769Z,6.27
2023-03-26T01:11:27.903Z,6.26
2023-03-26T01:13:57.737Z,6.27
2023-03-26T01:16:38.179Z,6.26
2023-03-26T01:19:16.377Z,6.21
2023-03-26T01:21:43.048Z,6.17
2023-03-26T01:24:10.236Z,6.17
2023-03-26T01:27:01.841Z,6.15
2023-03-26T01:29:37.468Z,6.11
2023-03-26T01:32:16.295Z,6.07
2023-03-26T01:34:59.011Z,6.04
2023-03-26T01:37:52.414Z,6.02
2023-03-26T01:40:25.378Z,5.99
2023-03-26T01:43:03.447Z,5.97
2023-03-26T01:45:38.103Z,5.97
2023-03-26T01:48:06.098Z,5.93
2023-03-26T01:50:33.085Z,5.91
2023-03-26T01:53:00.550Z,5.92
2023-03-26T01:55:36.889Z,5.93
2023-03-26T01:58:56.784Z,5.92
2023-03-26T02:01:32.860Z,5.92
2023-03-26T02:04:16.527Z,5.89
2023-03-26T02:06:48.308Z,5.88
2023-03-26T02:09:22.282Z,5.85
2023-03-26T02:11:50.307Z,5.84
2023-03-26T02:14:17.339Z,5.83
2023-03-26T02:16:46.703Z,5.81
2023-03-26T02:19:21.359Z,5.80
2023-03-26T02:21:51.997Z,5.78
2023-03-26T02:24:19.538Z,5.76
2023-03-26T02:31:01.764Z,5.75
2023-03-26T02:33:30.037Z,5.75
2023-03-26T02:35:59.420Z,5.75
2023-03-26T02:38:26.674Z,5.74
2023-03-26T02:40:54.631Z,5.72
2023-03-26T02:43:22.093Z,5.72
2023-03-26T02:45:49.036Z,5.69
2023-03-26T02:48:15.685Z,5.68
2023-03-26T02:50:43.492Z,5.66
2023-03-26T02:53:11.750Z,5.64
2023-03-26T02:55:38.409Z,5.66
2023-03-26T02:58:06.228Z,5.65
2023-03-26T03:00:34.339Z,5.62
2023-03-26T03:03:04.471Z,5.62
2023-03-26T03:05:33.083Z,5.62
2023-03-26T03:08:00.124Z,5.62
2023-03-26T03:10:28.026Z,5.62
2023-03-26T03:12:54.767Z,5.60
2023-03-26T03:15:21.471Z,5.61
2023-03-26T03:17:48.251Z,5.59
2023-03-26T03:20:15.511Z,5.61
2023-03-26T03:22:42.321Z,5.61
2023-03-26T03:25:14.138Z,5.63
2023-03-26T03:27:42.737Z,5.60
2023-03-26T03:30:12.198Z,5.59
2023-03-26T03:32:39.120Z,5.58
2023-03-26T03:35:06.885Z,5.59
2023-03-26T03:37:33.659Z,5.57
2023-03-26T03:40:00.349Z,5.57
2023-03-26T03:42:29.723Z,5.57
2023-03-26T03:44:56.181Z,5.56
2023-03-26T03:47:22.822Z,5.55
2023-03-26T03:49:49.995Z,5.53
2023-03-26T03:52:18.141Z,5.51
2023-03-26T03:54:44.972Z,5.52
2023-03-26T03:57:11.551Z,5.50
2023-03-26T03:59:38.030Z,5.48
2023-03-26T04:02:14.317Z,5.45
2023-03-26T04:04:40.883Z,5.43
2023-03-26T04:07:07.392Z,5.37
2023-03-26T04:09:33.858Z,5.33
2023-03-26T04:12:00.402Z,5.34
2023-03-26T04:14:26.864Z,5.33
2023-03-26T04:16:53.370Z,5.33
2023-03-26T04:19:19.955Z,5.31
2023-03-26T04:21:46.461Z,5.31
2023-03-26T04:24:13.520Z,5.30
2023-03-26T04:26:41.063Z,5.29
2023-03-26T04:29:11.899Z,5.28
2023-03-26T04:31:38.829Z,5.27
2023-03-26T04:34:14.862Z,5.29
2023-03-26T04:36:46.235Z,5.27
2023-03-26T04:39:13.369Z,5.24
2023-03-26T04:41:39.891Z,5.23
2023-03-26T04:44:06.865Z,5.22
2023-03-26T04:46:33.742Z,5.21
2023-03-26T04:49:01.093Z,5.20
2023-03-26T04:51:35.068Z,5.16
2023-03-26T04:54:02.662Z,5.13
2023-03-26T04:56:52.653Z,5.13
2023-03-26T04:59:26.151Z,5.14
2023-03-26T05:01:53.407Z,5.11
2023-03-26T05:04:19.982Z,5.10
2023-03-26T05:06:46.804Z,5.11
2023-03-26T05:09:14.347Z,5.06
2023-03-26T05:11:41.250Z,5.07
2023-03-26T05:14:08.236Z,5.05
2023-03-26T05:16:35.838Z,5.03
2023-03-26T05:19:02.446Z,4.99
2023-03-26T05:21:29.014Z,4.97
2023-03-26T05:23:55.673Z,4.94
2023-03-26T05:26:22.186Z,4.94
2023-03-26T05:28:48.688Z,4.95
2023-03-26T05:31:18.537Z,4.94
2023-03-26T05:33:46.255Z,4.94
2023-03-26T05:36:15.208Z,4.94
2023-03-26T05:38:47.258Z,4.93
2023-03-26T05:41:16.594Z,4.92
2023-03-26T05:43:44.810Z,4.89
2023-03-26T05:46:15.565Z,4.91
2023-03-26T05:48:42.502Z,4.91
2023-03-26T05:51:09.252Z,4.93
2023-03-26T05:53:35.912Z,4.92
2023-03-26T05:56:02.943Z,4.92
2023-03-26T05:58:31.823Z,4.93
2023-03-26T06:01:08.430Z,4.95
2023-03-26T06:03:38.124Z,4.95
2023-03-26T06:06:09.246Z,4.97
2023-03-26T06:08:35.940Z,4.98
2023-03-26T06:11:07.197Z,4.98
2023-03-26T06:13:34.040Z,5.03
2023-03-26T06:16:00.786Z,5.03
2023-03-26T06:18:27.603Z,5.05
2023-03-26T06:20:54.754Z,5.06
2023-03-26T06:23:23.117Z,5.07
2023-03-26T06:25:49.947Z,5.09
2023-03-26T06:28:17.257Z,5.12
2023-03-26T06:30:45.110Z,5.13
2023-03-26T06:33:11.761Z,5.15
2023-03-26T06:35:38.567Z,5.16
2023-03-26T06:38:07.620Z,5.17
2023-03-26T06:40:34.516Z,5.17
2023-03-26T06:43:09.362Z,5.19
2023-03-26T06:45:38.026Z,5.20
2023-03-26T06:48:06.062Z,5.20
2023-03-26T06:50:32.910Z,5.24
2023-03-26T06:53:00.285Z,5.26
2023-03-26T06:55:27.479Z,5.27
2023-03-26T06:57:55.903Z,5.33
2023-03-26T07:00:22.833Z,5.35
2023-03-26T07:02:49.906Z,5.40
2023-03-26T07:05:16.841Z,5.45
2023-03-26T07:07:46.181Z,5.47
2023-03-26T07:10:13.769Z,5.51
2023-03-26T07:12:42.428Z,5.53
2023-03-26T07:15:10.173Z,5.56
2023-03-26T07:17:37.269Z,5.60
2023-03-26T07:20:06.526Z,5.63
2023-03-26T07:22:33.809Z,5.65
2023-03-26T07:25:01.118Z,5.66
2023-03-26T07:27:50.976Z,5.65
2023-03-26T07:30:35.918Z,5.59
2023-03-26T07:33:09.435Z,5.52
2023-03-26T07:35:46.735Z,5.46
2023-03-26T07:38:35.266Z,5.41
2023-03-26T07:41:30.592Z,5.39
2023-03-26T07:44:05.929Z,5.37
2023-03-26T07:46:37.084Z,5.38
2023-03-26T07:49:05.115Z,5.41
2023-03-26T07:51:32.446Z,5.44
2023-03-26T07:54:00.543Z,5.48
2023-03-26T07:56:37.604Z,5.52
2023-03-26T07:59:26.317Z,5.58
2023-03-26T08:02:01.386Z,5.62
2023-03-26T08:05:04.699Z,5.72
2023-03-26T08:07:52.687Z,5.78
2023-03-26T08:10:23.719Z,5.81
2023-03-26T08:13:25.391Z,5.85
2023-03-26T08:16:06.152Z,5.83
2023-03-26T08:19:11.018Z,5.84
2023-03-26T08:21:47.955Z,5.86
2023-03-26T08:24:17.747Z,5.87
2023-03-26T08:26:53.048Z,5.89
2023-03-26T08:29:29.705Z,5.94
2023-03-26T08:31:57.421Z,5.99
2023-03-26T08:34:24.186Z,6.05
2023-03-26T08:36:51.002Z,6.04
2023-03-26T08:39:18.172Z,6.00
2023-03-26T08:42:06.763Z,5.98
2023-03-26T08:44:51.453Z,5.99
2023-03-26T08:47:39.841Z,5.96
2023-03-26T08:50:21.888Z,5.95
2023-03-26T08:53:21.395Z,5.91
2023-03-26T08:56:01.588Z,5.86
2023-03-26T08:58:46.908Z,5.83
2023-03-26T09:01:45.810Z,5.85
2023-03-26T09:04:41.238Z,5.89
2023-03-26T09:07:42.573Z,5.94
2023-03-26T09:10:33.738Z,5.99
2023-03-26T09:13:47.707Z,6.04
2023-03-26T09:16:32.994Z,6.08
2023-03-26T09:19:17.951Z,6.14
2023-03-26T09:21:53.606Z,6.22
2023-03-26T09:24:58.997Z,6.28
2023-03-26T09:27:56.227Z,6.34
2023-03-26T09:30:44.789Z,6.41
2023-03-26T09:33:28.032Z,6.48
2023-03-26T09:36:32.914Z,6.54
2023-03-26T09:39:17.380Z,6.58
2023-03-26T09:42:03.955Z,6.63
2023-03-26T09:44:59.488Z,6.72
2023-03-26T09:47:44.175Z,6.76
2023-03-26T09:50:29.746Z,6.79
2023-03-26T09:53:14.585Z,6.85
2023-03-26T09:56:00.226Z,6.90
2023-03-26T09:58:50.276Z,6.98
2023-03-26T10:01:32.033Z,6.98
2023-03-26T10:04:38.526Z,7.05
2023-03-26T10:07:45.040Z,6.99
2023-03-26T10:10:25.691Z,6.95
2023-03-26T10:13:14.607Z,6.94
2023-03-26T10:15:44.768Z,6.95
2023-03-26T10:18:33.880Z,6.96
2023-03-26T10:21:17.388Z,6.96
2023-03-26T10:24:01.612Z,7.00
2023-03-26T10:27:08.503Z,7.23
2023-03-26T10:29:55.726Z,7.66
2023-03-26T10:32:30.832Z,8.00
2023-03-26T10:35:37.068Z,8.40
2023-03-26T10:38:42.067Z,8.78
2023-03-26T10:41:35.961Z,8.99
2023-03-26T10:44:44.408Z,9.09
2023-03-26T10:47:40.734Z,8.99
2023-03-26T10:50:17.235Z,8.81
2023-03-26T10:52:56.234Z,8.69
2023-03-26T10:55:33.886Z,8.55
2023-03-26T10:58:25.174Z,8.37
2023-03-26T11:01:00.111Z,8.24
2023-03-26T11:03:54.830Z,8.12
2023-03-26T11:07:06.856Z,8.07
2023-03-26T11:09:54.252Z,8.05
2023-03-26T11:12:44.833Z,8.13
2023-03-26T11:15:24.665Z,8.31
2023-03-26T11:18:09.874Z,8.48
2023-03-26T11:20:45.596Z,8.78
2023-03-26T11:23:22.371Z,8.90
2023-03-26T11:26:06.804Z,8.95
2023-03-26T11:29:03.119Z,9.07
2023-03-26T11:32:01.673Z,8.92
2023-03-26T11:34:37.093Z,8.82
2023-03-26T11:37:08.504Z,8.68
2023-03-26T11:39:57.908Z,8.42
2023-03-26T11:42:25.614Z,8.11
2023-03-26T11:45:12.915Z,8.00
2023-03-26T11:47:43.401Z,7.94
2023-03-26T11:50:18.112Z,7.84
2023-03-26T11:52:46.556Z,7.79
2023-03-26T11:55:13.993Z,7.68
2023-03-26T11:57:49.006Z,7.65
2023-03-26T12:00:21.058Z,7.71
2023-03-26T12:02:48.917Z,7.84
2023-03-26T12:05:18.464Z,8.01
2023-03-26T12:07:57.852Z,8.16
2023-03-26T12:10:29.360Z,8.15
2023-03-26T12:13:21.586Z,8.06
2023-03-26T12:15:48.537Z,8.00
2023-03-26T12:18:24.972Z,8.11
2023-03-26T12:21:04.735Z,8.32
2023-03-26T12:23:43.490Z,8.48
2023-03-26T12:26:15.136Z,8.63
2023-03-26T12:28:47.011Z,8.68
2023-03-26T12:31:19.006Z,8.52
2023-03-26T12:34:05.260Z,8.42
2023-03-26T12:36:35.733Z,8.40
2023-03-26T12:40:10.740Z,8.41
2023-03-26T12:44:47.105Z,8.42
2023-03-26T12:45:14.465Z,8.32
2023-03-26T12:47:55.465Z,8.27
2023-03-26T12:50:44.250Z,8.24
2023-03-26T12:53:39.530Z,8.19
2023-03-26T12:56:47.730Z,8.10
2023-03-26T12:59:30.798Z,8.03
2023-03-26T13:02:22.587Z,8.10
2023-03-26T13:05:17.678Z,8.08
2023-03-26T13:08:05.583Z,8.03
2023-03-26T13:11:14.159Z,7.86
2023-03-26T13:14:00.617Z,7.86
2023-03-26T13:16:48.138Z,7.87
2023-03-26T13:19:41.939Z,7.97
2023-03-26T13:22:25.579Z,8.09
2023-03-26T13:25:04.613Z,8.20
2023-03-26T13:27:49.577Z,8.37
2023-03-26T13:30:28.912Z,8.44
2023-03-26T13:33:20.943Z,8.41
2023-03-26T13:36:14.444Z,8.31
2023-03-26T13:39:04.435Z,8.36
2023-03-26T13:41:53.467Z,8.34
2023-03-26T13:44:46.175Z,8.29
2023-03-26T13:47:18.487Z,8.29
2023-03-26T13:49:51.858Z,8.22
2023-03-26T13:52:41.968Z,8.29
2023-03-26T13:55:20.570Z,8.39
2023-03-26T13:58:03.060Z,8.37
2023-03-26T14:00:54.193Z,8.34
2023-03-26T14:03:33.415Z,8.24
2023-03-26T14:06:08.364Z,8.14
2023-03-26T14:08:49.390Z,8.10
2023-03-26T14:11:27.785Z,8.02
2023-03-26T14:14:04.256Z,8.08
2023-03-26T14:16:41.737Z,8.07
2023-03-26T14:19:27.836Z,8.10
2023-03-26T14:22:33.620Z,8.13
2023-03-26T14:25:30.168Z,8.07
2023-03-26T14:28:02.621Z,8.05
2023-03-26T14:30:59.975Z,7.96
2023-03-26T14:33:48.287Z,7.93
2023-03-26T14:36:49.052Z,7.92
2023-03-26T14:39:29.089Z,7.89
2023-03-26T14:42:06.534Z,7.80
2023-03-26T14:44:56.291Z,7.77
2023-03-26T14:47:26.756Z,7.70
2023-03-26T14:50:36.298Z,7.67
2023-03-26T14:53:29.761Z,7.60
2023-03-26T14:56:15.719Z,7.70
2023-03-26T14:59:07.169Z,7.76
2023-03-26T15:02:17.448Z,7.81
2023-03-26T15:05:08.465Z,7.86
2023-03-26T15:07:57.956Z,7.86
2023-03-26T15:10:42.775Z,7.80
2023-03-26T15:13:40.686Z,7.73
2023-03-26T15:16:27.962Z,7.60
2023-03-26T15:19:33.364Z,7.57
2023-03-26T15:22:21.552Z,7.53
2023-03-26T15:25:18.446Z,7.49
2023-03-26T15:28:14.570Z,7.48
2023-03-26T15:31:10.201Z,7.48
2023-03-26T15:33:45.613Z,7.45
2023-03-26T15:36:33.337Z,7.43
2023-03-26T15:39:06.446Z,7.38
2023-03-26T15:41:55.667Z,7.30
2023-03-26T15:45:15.590Z,7.30
2023-03-26T15:48:04.824Z,7.35
2023-03-26T15:50:49.895Z,7.36
2023-03-26T15:53:23.419Z,7.37
2023-03-26T15:56:07.369Z,7.42
2023-03-26T15:58:49.289Z,7.42
2023-03-26T16:02:04.056Z,7.40
2023-03-26T16:04:50.394Z,7.32
2023-03-26T16:07:21.757Z,7.30
2023-03-26T16:10:13.318Z,7.26
2023-03-26T16:12:54.729Z,7.23
2023-03-26T16:15:33.201Z,7.20
2023-03-26T16:18:15.311Z,7.22
2023-03-26T16:20:46.655Z,7.22
2023-03-26T16:23:29.220Z,7.21
2023-03-26T16:26:08.066Z,7.17
2023-03-26T16:28:36.503Z,7.12
2023-03-26T16:31:37.468Z,7.03
2023-03-26T16:34:05.248Z,7.01
2023-03-26T16:36:36.248Z,6.95
2023-03-26T16:39:05.653Z,6.92
2023-03-26T16:42:06.556Z,6.85
2023-03-26T16:44:47.398Z,6.76
2023-03-26T16:47:34.776Z,6.75
2023-03-26T16:50:43.684Z,6.70
2023-03-26T16:53:41.708Z,6.60
2023-03-26T16:56:37.853Z,6.56
2023-03-26T16:59:22.051Z,6.48
2023-03-26T17:02:01.813Z,6.40
2023-03-26T17:04:32.466Z,6.36
2023-03-26T17:07:30.103Z,6.31
2023-03-26T17:10:35.004Z,6.23
2023-03-26T17:13:23.319Z,6.18
2023-03-26T17:16:12.531Z,6.15
2023-03-26T17:18:43.497Z,6.10
2023-03-26T17:21:12.929Z,6.04
2023-03-26T17:23:51.482Z,5.98
2023-03-26T17:26:50.920Z,5.89
2023-03-26T17:29:47.960Z,5.84
2023-03-26T17:32:15.126Z,5.76
2023-03-26T17:34:59.080Z,5.73
2023-03-26T17:37:32.252Z,5.63
2023-03-26T17:40:01.668Z,5.57
2023-03-26T17:42:33.117Z,5.50
2023-03-26T17:45:02.402Z,5.40
2023-03-26T17:47:38.247Z,5.40
2023-03-26T17:50:13.321Z,5.35
2023-03-26T17:52:55.626Z,5.29
2023-03-26T17:55:30.483Z,5.19
2023-03-26T17:58:01.025Z,5.15
2023-03-26T18:00:41.688Z,5.13
2023-03-26T18:03:21.225Z,5.07
2023-03-26T18:05:49.001Z,4.99
2023-03-26T18:08:39.631Z,4.95
2023-03-26T18:11:07.765Z,4.90
2023-03-26T18:14:09.283Z,4.84
2023-03-26T18:16:51.383Z,4.81
2023-03-26T18:19:19.298Z,4.77
2023-03-26T18:21:52.213Z,4.73
2023-03-26T18:24:36.451Z,4.66
2023-03-26T18:27:07.298Z,4.64
2023-03-26T18:29:35.776Z,4.56
2023-03-26T18:32:03.800Z,4.56
2023-03-26T18:34:32.423Z,4.52
2023-03-26T18:37:11.219Z,4.53
2023-03-26T18:39:38.389Z,4.44
2023-03-26T18:42:06.569Z,4.49
2023-03-26T18:44:36.691Z,4.45
2023-03-26T18:47:08.772Z,4.48
2023-03-26T18:49:36.476Z,4.48
2023-03-26T18:52:03.291Z,4.47
2023-03-26T18:54:35.484Z,4.48
2023-03-26T18:57:15.341Z,4.46
2023-03-26T18:59:45.110Z,4.43
2023-03-26T19:02:14.514Z,4.40
2023-03-26T19:04:45.309Z,4.32
2023-03-26T19:07:16.314Z,4.28
2023-03-26T19:09:43.686Z,4.27
2023-03-26T19:12:20.841Z,4.27
2023-03-26T19:14:55.740Z,4.26
2023-03-26T19:17:26.441Z,4.21
2023-03-26T19:19:54.835Z,4.18
2023-03-26T19:22:25.172Z,4.16
2023-03-26T19:24:57.678Z,4.13
2023-03-26T19:27:24.489Z,4.10
2023-03-26T19:29:51.095Z,4.04
2023-03-26T19:32:28.586Z,4.03
2023-03-26T19:34:59.253Z,3.99
2023-03-26T19:37:30.673Z,3.92
2023-03-26T19:40:06.990Z,3.95
2023-03-26T19:42:44.086Z,3.89
2023-03-26T19:45:18.587Z,3.89
2023-03-26T19:47:50.189Z,3.83
2023-03-26T19:50:28.472Z,3.88
2023-03-26T19:53:17.907Z,3.83
2023-03-26T19:55:59.716Z,3.81
2023-03-26T19:58:27.071Z,3.80
2023-03-26T20:00:56.015Z,3.73
2023-03-26T20:03:38.001Z,3.70
2023-03-26T20:06:04.820Z,3.71
2023-03-26T20:08:31.516Z,3.69
2023-03-26T20:10:58.823Z,3.66
2023-03-26T20:13:25.730Z,3.63
2023-03-26T20:16:05.707Z,3.60
2023-03-26T20:18:34.513Z,3.59
2023-03-26T20:21:01.343Z,3.56
2023-03-26T20:23:28.767Z,3.52
2023-03-26T20:25:55.607Z,3.47
2023-03-26T20:28:22.317Z,3.47
2023-03-26T20:30:49.983Z,3.41
2023-03-26T20:33:26.590Z,3.40
2023-03-26T20:35:57.442Z,3.36
2023-03-26T20:38:38.695Z,3.32
2023-03-26T20:41:10.177Z,3.29
2023-03-26T20:43:37.329Z,3.18
2023-03-26T20:46:04.098Z,3.21
2023-03-26T20:48:31.501Z,3.20
2023-03-26T20:50:58.112Z,3.18
2023-03-26T20:53:24.868Z,3.15
2023-03-26T20:55:51.751Z,3.11
2023-03-26T20:58:31.552Z,3.08
2023-03-26T21:01:00.725Z,3.08
2023-03-26T21:03:27.407Z,3.04
2023-03-26T21:05:54.008Z,3.04
2023-03-26T21:08:21.724Z,2.98
2023-03-26T21:10:48.441Z,2.92
2023-03-26T21:13:33.108Z,2.95
2023-03-26T21:16:00.985Z,2.90
2023-03-26T21:18:28.750Z,2.86
2023-03-26T21:21:21.443Z,2.80
2023-03-26T21:23:59.228Z,2.82
2023-03-26T21:26:41.681Z,2.81
2023-03-26T21:29:08.710Z,2.81
2023-03-26T21:31:37.681Z,2.80
2023-03-26T21:34:05.481Z,2.79
2023-03-26T21:36:32.360Z,2.80
2023-03-26T21:38:59.526Z,2.79
2023-03-26T21:41:36.443Z,2.79
2023-03-26T21:44:03.594Z,2.79
2023-03-26T21:46:31.784Z,2.76
2023-03-26T21:48:58.519Z,2.76
2023-03-26T21:51:25.318Z,2.72
2023-03-26T21:53:52.181Z,2.68
2023-03-26T21:56:38.682Z,2.67
2023-03-26T21:59:24.186Z,2.62
2023-03-26T22:02:02.603Z,2.57
2023-03-26T22:04:44.993Z,2.55
2023-03-26T22:07:17.558Z,2.48
2023-03-26T22:09:44.988Z,2.41
2023-03-26T22:12:11.691Z,2.38
2023-03-26T22:14:38.675Z,2.36
2023-03-26T22:17:05.607Z,2.32
2023-03-26T22:19:32.171Z,2.27
2023-03-26T22:21:59.985Z,2.24
2023-03-26T22:24:27.057Z,2.22
2023-03-26T22:26:53.818Z,2.18
2023-03-26T22:29:20.720Z,2.15
2023-03-26T22:31:47.223Z,2.11
2023-03-26T22:34:13.881Z,2.08
2023-03-26T22:36:40.508Z,2.06
2023-03-26T22:39:07.207Z,2.04
2023-03-26T22:41:33.681Z,1.97
2023-03-26T22:44:09.259Z,1.96
2023-03-26T22:46:47.337Z,1.92
2023-03-26T22:49:13.836Z,1.92
2023-03-26T22:51:40.304Z,1.86
2023-03-26T22:54:07.611Z,1.86
2023-03-26T22:56:34.142Z,1.80
2023-03-26T22:59:00.616Z,1.77
2023-03-26T23:01:27.295Z,1.78
2023-03-26T23:03:54.866Z,1.75
2023-03-26T23:06:21.598Z,1.73
2023-03-26T23:08:48.219Z,1.71
2023-03-26T23:11:17.871Z,1.68
2023-03-26T23:13:45.254Z,1.66
2023-03-26T23:16:12.635Z,1.66
2023-03-26T23:18:39.505Z,1.62
2023-03-26T23:21:11.959Z,1.64
2023-03-26T23:23:39.541Z,1.61
2023-03-26T23:26:06.845Z,1.56
2023-03-26T23:28:34.697Z,1.56
2023-03-26T23:31:05.052Z,1.54
2023-03-26T23:33:35.175Z,1.45
2023-03-26T23:36:08.947Z,1.49
2023-03-26T23:38:44.126Z,1.47
2023-03-26T23:41:15.595Z,1.40
2023-03-26T23:43:53.545Z,1.38
2023-03-26T23:46:23.939Z,1.37
2023-03-26T23:48:51.152Z,1.35
2023-03-26T23:51:19.987Z,1.32
2023-03-26T23:53:47.339Z,1.30
2023-03-26T23:56:13.871Z,1.27
2023-03-26T23:58:40.556Z,1.21
